createdAt,value
2023-04-23T00:02:21.071Z,34.47
2023-04-23T00:04:52.764Z,30.50
2023-04-23T00:07:21.128Z,28.33
2023-04-23T00:09:50.573Z,33.07
2023-04-23T00:12:18.174Z,33.37
2023-04-23T00:14:45.708Z,31.07
2023-04-23T00:17:13.246Z,29.20
2023-04-23T00:19:40.763Z,30.60
2023-04-23T00:22:08.433Z,29.20
2023-04-23T00:24:35.968Z,29.63
2023-04-23T00:27:04.373Z,30.43
2023-04-23T00:29:32.194Z,33.83
2023-04-23T00:31:59.821Z,29.30
2023-04-23T00:34:27.441Z,27.20
2023-04-23T00:36:55.042Z,30.60
2023-04-23T00:39:22.571Z,29.17
2023-04-23T00:41:50.159Z,31.07
2023-04-23T00:44:17.685Z,31.67
2023-04-23T00:46:45.741Z,32.43
2023-04-23T00:49:14.548Z,32.20
2023-04-23T00:51:42.101Z,29.20
2023-04-23T00:54:09.628Z,31.10
2023-04-23T00:56:37.505Z,35.23
2023-04-23T00:59:05.069Z,32.97
2023-04-23T01:01:32.980Z,30.43
2023-04-23T01:04:00.848Z,29.83
2023-04-23T01:06:28.588Z,30.27
2023-04-23T01:08:56.435Z,28.23
2023-04-23T01:11:24.303Z,33.70
2023-04-23T01:13:51.830Z,29.40
2023-04-23T01:16:19.509Z,29.50
2023-04-23T01:18:47.008Z,32.33
2023-04-23T01:21:15.458Z,32.20
2023-04-23T01:23:42.974Z,29.57
2023-04-23T01:26:10.596Z,32.87
2023-04-23T01:28:38.196Z,32.10
2023-04-23T01:31:05.946Z,33.70
2023-04-23T01:33:34.016Z,35.43
2023-04-23T01:36:02.877Z,33.30
2023-04-23T01:38:31.743Z,36.37
2023-04-23T01:40:59.298Z,35.87
2023-04-23T01:43:27.359Z,36.63
2023-04-23T01:45:54.956Z,34.77
2023-04-23T01:48:22.553Z,36.23
2023-04-23T01:50:51.356Z,36.60
2023-04-23T01:53:19.176Z,35.73
2023-04-23T01:55:47.660Z,43.33
2023-04-23T01:58:15.348Z,37.13
2023-04-23T02:00:42.916Z,35.43
2023-04-23T02:03:10.523Z,37.37
2023-04-23T02:05:39.562Z,41.83
2023-04-23T02:08:07.146Z,41.17
2023-04-23T02:10:34.673Z,37.80
2023-04-23T02:13:02.610Z,37.43
2023-04-23T02:15:30.419Z,36.17
2023-04-23T02:17:57.935Z,39.50
2023-04-23T02:20:25.532Z,38.80
2023-04-23T02:22:53.076Z,39.13
2023-04-23T02:25:20.763Z,39.90
2023-04-23T02:27:48.661Z,36.60
2023-04-23T02:30:16.239Z,30.57
2023-04-23T02:32:43.844Z,33.50
2023-04-23T02:35:11.510Z,38.30
2023-04-23T02:37:38.993Z,35.87
2023-04-23T02:40:06.963Z,34.80
2023-04-23T02:42:34.816Z,31.50
2023-04-23T02:45:02.434Z,32.17
2023-04-23T02:47:29.987Z,40.93
2023-04-23T02:49:57.523Z,32.43
2023-04-23T02:52:25.042Z,34.20
2023-04-23T02:54:52.621Z,30.57
2023-04-23T02:57:20.256Z,35.93
2023-04-23T02:59:47.872Z,32.80
2023-04-23T03:02:15.482Z,34.70
2023-04-23T03:04:43.360Z,32.07
2023-04-23T03:07:11.102Z,33.53
2023-04-23T03:09:38.642Z,33.03
2023-04-23T03:12:06.174Z,36.13
2023-04-23T03:14:33.719Z,33.47
2023-04-23T03:17:01.342Z,36.70
2023-04-23T03:19:29.017Z,34.67
2023-04-23T03:21:56.511Z,37.40
2023-04-23T03:24:24.066Z,33.60
2023-04-23T03:26:51.560Z,34.33
2023-04-23T03:29:21.792Z,37.30
2023-04-23T03:31:49.403Z,36.20
2023-04-23T03:34:16.878Z,35.80
2023-04-23T03:36:44.851Z,35.37
2023-04-23T03:39:12.436Z,36.37
2023-04-23T03:41:39.989Z,37.77
2023-04-23T03:44:07.493Z,37.37
2023-04-23T03:46:35.052Z,39.70
2023-04-23T03:49:02.599Z,38.00
2023-04-23T03:51:30.203Z,39.20
2023-04-23T03:53:57.680Z,36.13
2023-04-23T03:56:27.060Z,38.20
2023-04-23T03:58:54.813Z,36.33
2023-04-23T04:01:22.463Z,37.80
2023-04-23T04:03:50.189Z,38.27
2023-04-23T04:06:18.064Z,46.03
2023-04-23T04:08:45.573Z,42.77
2023-04-23T04:11:13.172Z,46.37
2023-04-23T04:13:40.684Z,43.70
2023-04-23T04:16:08.407Z,43.67
2023-04-23T04:18:35.962Z,41.50
2023-04-23T04:21:03.527Z,44.00
2023-04-23T04:23:31.128Z,43.83
2023-04-23T04:25:58.717Z,38.13
2023-04-23T04:28:26.254Z,35.87
2023-04-23T04:30:54.033Z,44.43
2023-04-23T04:33:21.548Z,37.50
2023-04-23T04:35:49.174Z,37.93
2023-04-23T04:38:16.651Z,37.60
2023-04-23T04:40:44.226Z,40.97
2023-04-23T04:43:11.709Z,42.80
2023-04-23T04:45:39.247Z,42.43
2023-04-23T04:48:06.785Z,40.60
2023-04-23T04:50:34.469Z,38.00
2023-04-23T04:53:01.975Z,37.67
2023-04-23T04:55:29.598Z,38.53
2023-04-23T04:57:57.119Z,32.53
2023-04-23T05:00:28.499Z,35.20
2023-04-23T05:02:59.500Z,36.60
2023-04-23T05:05:27.621Z,36.87
2023-04-23T05:07:55.461Z,33.90
2023-04-23T05:10:23.064Z,37.03
2023-04-23T05:12:50.600Z,34.63
2023-04-23T05:15:18.632Z,34.97
2023-04-23T05:17:46.164Z,36.80
2023-04-23T05:20:13.724Z,35.80
2023-04-23T05:22:41.925Z,36.60
2023-04-23T05:25:10.031Z,36.50
2023-04-23T05:27:37.684Z,34.50
2023-04-23T05:30:07.151Z,36.30
2023-04-23T05:32:35.062Z,32.43
2023-04-23T05:35:03.381Z,39.23
2023-04-23T05:37:30.996Z,34.17
2023-04-23T05:39:58.697Z,32.90
2023-04-23T05:42:26.235Z,36.17
2023-04-23T05:44:53.828Z,33.67
2023-04-23T05:47:21.394Z,33.93
2023-04-23T05:49:49.012Z,33.93
2023-04-23T05:52:16.716Z,29.43
2023-04-23T05:54:44.456Z,32.37
2023-04-23T05:57:12.246Z,29.57
2023-04-23T05:59:39.849Z,30.10
2023-04-23T06:02:08.100Z,29.13
2023-04-23T06:04:36.100Z,30.30
2023-04-23T06:07:04.449Z,26.93
2023-04-23T06:09:32.006Z,27.67
2023-04-23T06:11:59.626Z,28.97
2023-04-23T06:14:27.306Z,26.23
2023-04-23T06:16:54.823Z,26.33
2023-04-23T06:19:22.372Z,25.93
2023-04-23T06:21:51.538Z,25.67
2023-04-23T06:24:19.047Z,25.17
2023-04-23T06:26:46.530Z,27.33
2023-04-23T06:29:14.129Z,24.33
2023-04-23T06:31:41.796Z,26.30
2023-04-23T06:34:09.513Z,25.27
2023-04-23T06:36:37.040Z,23.43
2023-04-23T06:39:04.568Z,24.40
2023-04-23T06:41:32.072Z,23.23
2023-04-23T06:43:59.583Z,21.77
2023-04-23T06:46:27.060Z,21.60
2023-04-23T06:48:54.673Z,25.50
2023-04-23T06:51:22.204Z,23.23
2023-04-23T06:53:49.775Z,21.63
2023-04-23T06:56:17.298Z,17.30
2023-04-23T06:58:44.869Z,18.37
2023-04-23T07:01:12.469Z,15.73
2023-04-23T07:03:40.136Z,19.50
2023-04-23T07:06:07.949Z,20.07
2023-04-23T07:08:35.540Z,19.83
2023-04-23T07:11:03.063Z,17.90
2023-04-23T07:13:30.685Z,18.20
2023-04-23T07:15:58.224Z,14.87
2023-04-23T07:18:25.780Z,18.43
2023-04-23T07:20:53.269Z,15.80
2023-04-23T07:23:20.848Z,16.13
2023-04-23T07:25:48.345Z,15.33
2023-04-23T07:28:15.942Z,15.00
2023-04-23T07:30:43.521Z,15.10
2023-04-23T07:33:11.057Z,15.57
2023-04-23T07:35:38.572Z,13.53
2023-04-23T07:38:06.144Z,15.47
2023-04-23T07:40:33.722Z,12.43
2023-04-23T07:43:01.399Z,13.53
2023-04-23T07:45:28.912Z,10.87
2023-04-23T07:47:56.549Z,17.17
2023-04-23T07:50:24.108Z,8.27
2023-04-23T07:52:51.702Z,8.70
2023-04-23T07:55:19.360Z,9.13
2023-04-23T07:57:46.897Z,10.63
2023-04-23T08:00:14.728Z,9.03
2023-04-23T08:02:42.521Z,12.03
2023-04-23T08:05:10.328Z,9.43
2023-04-23T08:07:38.178Z,8.97
2023-04-23T08:10:06.015Z,6.57
2023-04-23T08:12:33.829Z,7.93
2023-04-23T08:15:01.389Z,9.90
2023-04-23T08:17:29.020Z,8.20
2023-04-23T08:19:56.538Z,7.50
2023-04-23T08:22:24.163Z,6.30
2023-04-23T08:24:51.648Z,8.93
2023-04-23T08:27:19.367Z,7.33
2023-04-23T08:29:46.872Z,5.57
2023-04-23T08:32:14.509Z,9.33
2023-04-23T08:34:42.107Z,4.40
2023-04-23T08:37:16.503Z,3.90
2023-04-23T08:39:51.039Z,5.37
2023-04-23T08:42:38.787Z,4.07
2023-04-23T08:45:06.641Z,9.10
2023-04-23T08:47:34.190Z,7.10
2023-04-23T08:50:02.099Z,8.93
2023-04-23T08:52:32.125Z,4.40
2023-04-23T08:55:00.917Z,5.03
2023-04-23T08:57:28.441Z,4.13
2023-04-23T08:59:56.493Z,5.97
2023-04-23T09:02:24.596Z,6.40
2023-04-23T09:04:54.088Z,6.40
2023-04-23T09:07:23.768Z,6.20
2023-04-23T09:09:51.281Z,7.17
2023-04-23T09:12:18.900Z,9.23
2023-04-23T09:14:46.418Z,6.53
2023-04-23T09:17:14.022Z,6.67
2023-04-23T09:19:42.605Z,5.70
2023-04-23T09:22:10.396Z,6.53
2023-04-23T09:24:37.909Z,8.67
2023-04-23T09:27:05.556Z,8.37
2023-04-23T09:29:33.045Z,7.17
2023-04-23T09:32:08.033Z,7.07
2023-04-23T09:34:36.366Z,8.10
2023-04-23T09:37:03.841Z,6.53
2023-04-23T09:39:31.441Z,6.00
2023-04-23T09:42:03.639Z,5.63
2023-04-23T09:44:32.961Z,9.00
2023-04-23T09:47:07.390Z,9.10
2023-04-23T09:49:45.271Z,5.07
2023-04-23T09:52:12.851Z,6.60
2023-04-23T09:54:40.514Z,4.60
2023-04-23T09:57:08.144Z,5.40
2023-04-23T09:59:46.658Z,6.57
2023-04-23T10:02:16.299Z,5.07
2023-04-23T10:04:44.180Z,3.03
2023-04-23T10:09:42.799Z,5.77
2023-04-23T10:12:27.825Z,4.13
2023-04-23T10:14:59.044Z,3.80
2023-04-23T10:17:26.736Z,4.80
2023-04-23T10:19:56.151Z,3.93
2023-04-23T10:22:23.840Z,5.07
2023-04-23T10:24:53.047Z,2.80
2023-04-23T10:27:33.358Z,7.67
2023-04-23T10:30:11.869Z,5.63
2023-04-23T10:32:39.632Z,5.70
2023-04-23T10:35:07.969Z,2.00
2023-04-23T10:37:36.496Z,3.80
2023-04-23T10:40:12.553Z,4.30
2023-04-23T10:42:43.975Z,2.90
2023-04-23T10:47:53.785Z,8.50
2023-04-23T10:50:23.006Z,4.30
2023-04-23T10:52:52.193Z,2.00
2023-04-23T10:55:23.631Z,5.47
2023-04-23T10:57:59.267Z,4.10
2023-04-23T11:00:29.224Z,2.03
2023-04-23T11:02:56.883Z,2.23
2023-04-23T11:05:24.541Z,3.00
2023-04-23T11:08:18.099Z,6.87
2023-04-23T11:10:57.536Z,4.27
2023-04-23T11:13:25.358Z,4.57
2023-04-23T11:16:19.487Z,3.30
2023-04-23T11:19:00.294Z,3.10
2023-04-23T11:21:46.600Z,3.63
2023-04-23T11:24:14.177Z,4.33
2023-04-23T11:26:43.500Z,3.63
2023-04-23T11:29:12.187Z,3.47
2023-04-23T11:31:50.568Z,2.87
2023-04-23T11:34:27.304Z,3.20
2023-04-23T11:36:54.986Z,5.63
2023-04-23T11:39:23.268Z,2.77
2023-04-23T11:41:50.787Z,2.30
2023-04-23T11:44:18.687Z,2.40
2023-04-23T11:46:47.129Z,4.47
2023-04-23T11:49:15.045Z,1.97
2023-04-23T11:51:43.426Z,3.47
2023-04-23T11:54:11.192Z,3.00
2023-04-23T11:56:38.781Z,3.37
2023-04-23T11:59:06.977Z,2.63
2023-04-23T12:01:44.315Z,3.10
2023-04-23T12:04:17.035Z,5.10
2023-04-23T12:06:45.729Z,1.93
2023-04-23T12:09:13.802Z,3.00
2023-04-23T12:11:42.016Z,1.90
2023-04-23T12:14:10.635Z,2.10
2023-04-23T12:16:38.240Z,6.30
2023-04-23T12:19:08.350Z,4.57
2023-04-23T12:21:36.032Z,3.77
2023-04-23T12:24:04.426Z,3.40
2023-04-23T12:26:32.093Z,5.80
2023-04-23T12:29:00.168Z,4.50
2023-04-23T12:31:28.480Z,5.73
2023-04-23T12:33:58.819Z,3.17
2023-04-23T12:36:27.675Z,1.93
2023-04-23T12:38:55.236Z,5.20
2023-04-23T12:41:22.920Z,1.70
2023-04-23T12:43:50.462Z,4.13
2023-04-23T12:46:18.070Z,2.70
2023-04-23T12:48:45.607Z,3.50
2023-04-23T12:51:13.234Z,3.67
2023-04-23T12:53:40.775Z,2.93
2023-04-23T12:56:08.349Z,4.60
2023-04-23T12:58:35.844Z,3.37
2023-04-23T13:01:03.494Z,2.90
2023-04-23T13:03:31.067Z,4.30
2023-04-23T13:05:58.708Z,3.53
2023-04-23T13:08:26.201Z,4.37
2023-04-23T13:10:53.895Z,2.30
2023-04-23T13:13:21.397Z,3.90
2023-04-23T13:15:48.988Z,2.13
2023-04-23T13:18:16.500Z,4.40
2023-04-23T13:20:44.092Z,3.77
2023-04-23T13:23:11.605Z,4.57
2023-04-23T13:25:39.201Z,3.73
2023-04-23T13:28:06.724Z,2.67
2023-04-23T13:30:34.283Z,3.50
2023-04-23T13:33:01.819Z,2.87
2023-04-23T13:35:29.501Z,2.87
2023-04-23T13:37:57.033Z,3.13
2023-04-23T13:40:24.601Z,3.60
2023-04-23T13:42:52.094Z,3.00
2023-04-23T13:45:19.744Z,3.50
2023-04-23T13:47:47.562Z,3.13
2023-04-23T13:50:15.142Z,2.63
2023-04-23T13:52:42.665Z,6.73
2023-04-23T13:55:10.323Z,2.43
2023-04-23T13:57:37.947Z,1.90
2023-04-23T14:00:05.887Z,5.73
2023-04-23T14:02:33.493Z,2.80
2023-04-23T14:05:01.179Z,3.73
2023-04-23T14:07:28.704Z,8.93
2023-04-23T14:09:56.880Z,2.60
2023-04-23T14:12:24.426Z,6.03
2023-04-23T14:14:51.993Z,3.73
2023-04-23T14:17:19.548Z,4.50
2023-04-23T14:19:47.439Z,4.07
2023-04-23T14:22:15.031Z,4.17
2023-04-23T14:24:51.079Z,3.10
2023-04-23T14:27:18.673Z,2.83
2023-04-23T14:29:47.542Z,2.93
2023-04-23T14:32:15.104Z,6.13
2023-04-23T14:34:42.653Z,3.27
2023-04-23T14:37:10.212Z,2.37
2023-04-23T14:39:37.715Z,1.87
2023-04-23T14:42:05.357Z,2.57
2023-04-23T14:44:32.869Z,2.40
2023-04-23T14:47:00.404Z,1.73
2023-04-23T14:49:27.915Z,2.47
2023-04-23T14:51:55.500Z,2.13
2023-04-23T14:54:23.010Z,3.63
2023-04-23T14:56:53.392Z,2.67
2023-04-23T14:59:21.542Z,2.90
2023-04-23T15:01:49.109Z,2.37
2023-04-23T15:04:17.093Z,2.83
2023-04-23T15:06:44.663Z,3.73
2023-04-23T15:09:12.427Z,2.30
2023-04-23T15:11:40.990Z,4.87
2023-04-23T15:14:09.550Z,4.57
2023-04-23T15:19:08.047Z,4.27
2023-04-23T15:21:35.519Z,2.80
2023-04-23T15:24:03.114Z,4.37
2023-04-23T15:26:31.650Z,2.40
2023-04-23T15:28:59.229Z,4.73
2023-04-23T15:31:26.789Z,3.47
2023-04-23T15:33:54.374Z,3.67
2023-04-23T15:36:21.918Z,8.33
2023-04-23T15:38:49.405Z,7.00
2023-04-23T15:41:16.979Z,4.23
2023-04-23T15:43:44.532Z,6.23
2023-04-23T15:46:12.190Z,5.33
2023-04-23T15:48:39.873Z,5.07
2023-04-23T15:51:08.024Z,3.83
2023-04-23T15:53:35.602Z,5.83
2023-04-23T15:56:03.106Z,4.13
2023-04-23T15:58:33.769Z,3.60
2023-04-23T16:01:01.395Z,6.10
2023-04-23T16:03:29.108Z,3.80
2023-04-23T16:05:56.887Z,4.00
2023-04-23T16:08:24.525Z,4.10
2023-04-23T16:10:52.034Z,4.57
2023-04-23T16:13:19.545Z,4.07
2023-04-23T16:15:47.108Z,4.03
2023-04-23T16:18:14.602Z,6.23
2023-04-23T16:20:42.134Z,4.77
2023-04-23T16:23:09.633Z,3.43
2023-04-23T16:25:37.582Z,4.17
2023-04-23T16:28:05.078Z,3.17
2023-04-23T16:30:32.665Z,3.57
2023-04-23T16:33:00.170Z,3.13
2023-04-23T16:35:27.814Z,4.47
2023-04-23T16:37:55.399Z,7.03
2023-04-23T16:40:23.075Z,8.43
2023-04-23T16:42:50.574Z,5.60
2023-04-23T16:45:18.402Z,5.90
2023-04-23T16:47:45.948Z,5.17
2023-04-23T16:50:13.699Z,4.93
2023-04-23T16:52:41.236Z,6.93
2023-04-23T16:55:09.145Z,6.97
2023-04-23T16:57:37.019Z,6.30
2023-04-23T17:00:04.771Z,8.77
2023-04-23T17:02:32.336Z,6.07
2023-04-23T17:04:59.896Z,5.77
2023-04-23T17:07:27.399Z,6.70
2023-04-23T17:09:54.905Z,2.90
2023-04-23T17:12:22.421Z,5.80
2023-04-23T17:14:49.979Z,6.23
2023-04-23T17:17:17.476Z,5.40
2023-04-23T17:19:45.015Z,4.30
2023-04-23T17:22:12.773Z,3.50
2023-04-23T17:24:40.707Z,6.53
2023-04-23T17:27:08.459Z,6.07
2023-04-23T17:29:36.026Z,4.93
2023-04-23T17:32:03.612Z,7.03
2023-04-23T17:34:31.202Z,5.43
2023-04-23T17:36:58.737Z,7.83
2023-04-23T17:39:26.325Z,4.77
2023-04-23T17:41:53.831Z,3.00
2023-04-23T17:44:21.375Z,3.83
2023-04-23T17:46:48.876Z,2.50
2023-04-23T17:49:16.490Z,6.40
2023-04-23T17:51:44.001Z,3.93
2023-04-23T17:54:11.549Z,5.20
2023-04-23T17:56:39.052Z,3.30
2023-04-23T17:59:06.718Z,3.03
2023-04-23T18:01:34.314Z,3.07
2023-04-23T18:04:02.120Z,4.70
2023-04-23T18:06:29.847Z,3.90
2023-04-23T18:08:57.404Z,2.60
2023-04-23T18:11:25.228Z,2.57
2023-04-23T18:13:53.018Z,4.27
2023-04-23T18:16:20.585Z,2.60
2023-04-23T18:18:48.226Z,2.77
2023-04-23T18:21:15.989Z,6.30
2023-04-23T18:23:43.623Z,2.13
2023-04-23T18:26:11.235Z,4.00
2023-04-23T18:28:38.909Z,4.50
2023-04-23T18:31:06.512Z,3.07
2023-04-23T18:33:37.013Z,2.40
2023-04-23T18:36:24.866Z,3.33
2023-04-23T18:38:52.450Z,4.10
2023-04-23T18:41:19.974Z,2.80
2023-04-23T18:43:47.671Z,2.40
2023-04-23T18:46:15.479Z,2.50
2023-04-23T18:48:53.255Z,2.60
2023-04-23T18:51:41.055Z,2.80
2023-04-23T18:54:08.652Z,2.73
2023-04-23T18:56:36.156Z,2.40
2023-04-23T18:59:07.219Z,2.10
2023-04-23T19:01:35.275Z,2.43
2023-04-23T19:04:03.198Z,4.50
2023-04-23T19:06:30.796Z,2.57
2023-04-23T19:08:58.618Z,2.57
2023-04-23T19:11:26.219Z,1.93
2023-04-23T19:13:53.798Z,2.63
2023-04-23T19:16:21.311Z,4.17
2023-04-23T19:18:48.934Z,3.00
2023-04-23T19:21:16.577Z,3.30
2023-04-23T19:23:44.158Z,2.20
2023-04-23T19:26:11.918Z,2.73
2023-04-23T19:28:39.821Z,4.63
2023-04-23T19:31:07.509Z,2.57
2023-04-23T19:33:35.324Z,2.67
2023-04-23T19:36:03.020Z,2.07
2023-04-23T19:38:30.613Z,2.47
2023-04-23T19:40:58.139Z,0.83
2023-04-23T19:43:25.693Z,0.80
2023-04-23T19:45:53.225Z,1.30
2023-04-23T19:48:20.946Z,0.80
2023-04-23T19:50:48.490Z,2.20
2023-04-23T19:53:16.066Z,0.60
2023-04-23T19:55:43.604Z,0.60
2023-04-23T19:58:11.129Z,0.60
2023-04-23T20:00:38.640Z,0.83
2023-04-23T20:03:06.904Z,0.60
2023-04-23T20:05:34.537Z,1.67
2023-04-23T20:08:02.163Z,1.33
2023-04-23T20:10:29.697Z,0.40
2023-04-23T20:12:57.669Z,1.13
2023-04-23T20:15:25.191Z,0.40
2023-04-23T20:17:53.389Z,0.53
2023-04-23T20:20:21.024Z,0.53
2023-04-23T20:22:49.183Z,0.97
2023-04-23T20:25:16.797Z,1.00
2023-04-23T20:27:44.362Z,1.40
2023-04-23T20:30:12.707Z,0.70
2023-04-23T20:32:40.316Z,1.70
2023-04-23T20:35:08.061Z,0.60
2023-04-23T20:37:35.678Z,0.70
2023-04-23T20:40:03.216Z,0.77
2023-04-23T20:42:30.755Z,1.07
2023-04-23T20:44:58.273Z,1.27
2023-04-23T20:47:25.916Z,1.07
2023-04-23T20:49:53.422Z,0.63
2023-04-23T20:52:21.007Z,1.60
2023-04-23T20:54:48.526Z,0.70
2023-04-23T20:57:16.105Z,2.03
2023-04-23T20:59:43.790Z,0.60
2023-04-23T21:02:11.762Z,1.03
2023-04-23T21:04:39.347Z,1.07
2023-04-23T21:07:07.053Z,1.17
2023-04-23T21:09:34.574Z,1.83
2023-04-23T21:12:02.182Z,1.30
2023-04-23T21:14:29.908Z,2.30
2023-04-23T21:16:57.419Z,2.07
2023-04-23T21:19:24.946Z,2.00
2023-04-23T21:21:52.539Z,0.80
2023-04-23T21:24:20.026Z,1.20
2023-04-23T21:26:48.803Z,2.23
2023-04-23T21:29:16.289Z,0.80
2023-04-23T21:31:45.823Z,1.97
2023-04-23T21:34:14.813Z,1.03
2023-04-23T21:36:42.346Z,0.90
2023-04-23T21:39:12.305Z,1.30
2023-04-23T21:41:40.621Z,0.80
2023-04-23T21:44:08.983Z,0.97
2023-04-23T21:46:36.573Z,1.60
2023-04-23T21:49:04.123Z,1.00
2023-04-23T21:51:31.729Z,1.90
2023-04-23T21:53:59.258Z,1.53
2023-04-23T21:56:27.078Z,1.37
2023-04-23T21:58:54.703Z,1.00
2023-04-23T22:01:22.340Z,0.93
2023-04-23T22:03:50.025Z,1.50
2023-04-23T22:06:17.718Z,1.10
2023-04-23T22:08:46.232Z,1.07
2023-04-23T22:11:14.193Z,2.97
2023-04-23T22:13:41.668Z,2.27
2023-04-23T22:16:24.358Z,1.30
2023-04-23T22:18:54.932Z,1.53
2023-04-23T22:21:22.469Z,1.33
2023-04-23T22:23:50.180Z,2.07
2023-04-23T22:26:17.792Z,1.13
2023-04-23T22:28:45.463Z,2.30
2023-04-23T22:31:16.082Z,1.30
2023-04-23T22:33:43.815Z,1.93
2023-04-23T22:36:11.377Z,1.53
2023-04-23T22:38:39.033Z,2.40
2023-04-23T22:41:06.513Z,1.63
2023-04-23T22:43:34.034Z,2.20
2023-04-23T22:46:01.663Z,1.50
2023-04-23T22:48:29.388Z,1.20
2023-04-23T22:50:57.044Z,2.47
2023-04-23T22:53:24.597Z,3.13
2023-04-23T22:55:52.084Z,1.03
2023-04-23T22:58:19.671Z,1.70
2023-04-23T23:00:47.161Z,1.77
2023-04-23T23:03:14.878Z,1.50
2023-04-23T23:05:42.488Z,2.83
2023-04-23T23:08:10.120Z,2.73
2023-04-23T23:10:37.617Z,2.37
2023-04-23T23:13:05.225Z,0.90
2023-04-23T23:15:32.682Z,3.33
2023-04-23T23:18:00.329Z,1.90
2023-04-23T23:20:27.973Z,1.80
2023-04-23T23:22:55.590Z,0.93
2023-04-23T23:25:23.092Z,2.07
2023-04-23T23:27:50.665Z,3.73
2023-04-23T23:30:18.212Z,2.27
2023-04-23T23:32:46.436Z,0.87
2023-04-23T23:35:14.015Z,1.43
2023-04-23T23:37:41.536Z,1.13
2023-04-23T23:40:09.363Z,1.33
2023-04-23T23:42:36.939Z,1.20
2023-04-23T23:45:04.597Z,2.40
2023-04-23T23:47:32.219Z,1.53
2023-04-23T23:49:59.812Z,1.33
2023-04-23T23:52:27.381Z,1.50
2023-04-23T23:54:54.883Z,1.53
2023-04-23T23:57:22.441Z,1.70
2023-04-23T23:59:49.908Z,1.67
